SAVT/REL METAR and TAF weather

Enter ICAO airport designator
Station Type Date Time Source
SAVT METAR 2021/07/27 18:52 UTC NOAA

SAVT 271852Z 18015G25KT 9999 SHRA FEW030 SCT100 09/00 Q1029


Station Type Date Time Source
SAVT Decoded METAR 2021/07/27 18:52 UTC NOAA

Trelew Aerodrome, Argentina (SAVT) 43-12S 065-16W 43M
Jul 27, 2021 - 02:52 PM EDT / 2021.07.27 1852 UTC
Wind: from the S (180 degrees) at 17 MPH (15 KT) gusting to 29 MPH (25 KT):0
Visibility: greater than 7 mile(s):0
Sky conditions: partly cloudy
Weather: rain showers
Temperature: 48 F (9 C)
Dew Point: 32 F (0 C)
Relative Humidity: 53%
Pressure (altimeter): 30.39 in. Hg (1029 hPa)
ob: SAVT 271852Z 18015G25KT 9999 SHRA FEW030 SCT100 09/00 Q1029
cycle: 19

Station Type Date Time Source
SAVT TAF 2021/07/30 12:22 UTC NOAA

TAF SAVT 301100Z 3012/3112 27010KT 9999 SCT035 BKN090 TX16/3018Z TN02/3111Z
BECMG 3014/3016 21015KT CAVOK
BECMG 3023/3101 25010KT

Example: see airport list